Glidden, Iowa
Current Conditions -  °F | °C
As of 10:15 AM on Wednesday 26 Nov 2014 (Local Time) from KCIN Reporting Station
Unknown Precip Unknown Precip  
Wind Chill: 18°   Ceiling: 500
Heat Index: 28°   Visibility: 2.5mi
Dew Point: 27°   Wind: 12mph
Humidity: 93%   Direction: 20°NNE
Pressure: 29.98"   Gusts: NA
Location:  42.06°N, 94.73°W
Report Text: KCIN 261615Z AUTO 02010KT 2 1/2SM -UP OVC005 M02/M03 A2998 RMK AO2
Loading
Personal Weather Stations






























Interactive Weather Map New forecast layout! Learn more

10-Day Weather Forecast

Advertisements
Track Severe Weather on mobile